sensor_id;sensor_type;location;lat;lon;timestamp;pressure;altitude;pressure_sealevel;temperature;humidity
36014;BME280;22275;43.208;27.620;2022-09-13T00:02:23;100732.69;;;20.93;100.00
36014;BME280;22275;43.208;27.620;2022-09-13T00:04:50;100736.78;;;21.05;100.00
36014;BME280;22275;43.208;27.620;2022-09-13T00:07:17;100721.75;;;20.86;100.00
36014;BME280;22275;43.208;27.620;2022-09-13T00:10:04;100725.31;;;20.69;100.00
36014;BME280;22275;43.208;27.620;2022-09-13T00:12:31;100726.16;;;20.52;100.00
36014;BME280;22275;43.208;27.620;2022-09-13T00:14:58;100729.38;;;20.55;100.00
36014;BME280;22275;43.208;27.620;2022-09-13T00:17:27;100726.00;;;20.71;100.00
36014;BME280;22275;43.208;27.620;2022-09-13T00:19:55;100726.63;;;20.65;100.00
36014;BME280;22275;43.208;27.620;2022-09-13T00:22:22;100723.66;;;20.94;100.00
36014;BME280;22275;43.208;27.620;2022-09-13T00:24:49;100728.53;;;20.98;100.00
36014;BME280;22275;43.208;27.620;2022-09-13T00:27:16;100732.41;;;20.78;100.00
36014;BME280;22275;43.208;27.620;2022-09-13T00:29:43;100737.38;;;20.73;100.00
36014;BME280;22275;43.208;27.620;2022-09-13T00:32:11;100748.97;;;20.99;100.00
36014;BME280;22275;43.208;27.620;2022-09-13T00:34:40;100746.91;;;20.93;100.00
36014;BME280;22275;43.208;27.620;2022-09-13T00:37:07;100746.72;;;20.69;100.00
36014;BME280;22275;43.208;27.620;2022-09-13T00:39:35;100748.41;;;20.70;100.00
36014;BME280;22275;43.208;27.620;2022-09-13T00:42:02;100754.69;;;21.04;100.00
36014;BME280;22275;43.208;27.620;2022-09-13T00:44:52;100749.72;;;20.92;100.00
36014;BME280;22275;43.208;27.620;2022-09-13T00:47:24;100757.97;;;20.98;100.00
36014;BME280;22275;43.208;27.620;2022-09-13T00:49:57;100761.63;;;21.15;100.00
36014;BME280;22275;43.208;27.620;2022-09-13T00:52:28;100759.72;;;20.82;100.00
36014;BME280;22275;43.208;27.620;2022-09-13T00:55:01;100766.28;;;20.87;100.00
36014;BME280;22275;43.208;27.620;2022-09-13T00:57:30;100767.91;;;20.80;100.00
36014;BME280;22275;43.208;27.620;2022-09-13T01:00:03;100765.78;;;21.09;100.00
36014;BME280;22275;43.208;27.620;2022-09-13T01:02:34;100772.03;;;21.52;100.00
36014;BME280;22275;43.208;27.620;2022-09-13T01:05:04;100769.56;;;21.92;100.00
36014;BME280;22275;43.208;27.620;2022-09-13T01:07:32;100773.78;;;22.03;100.00
36014;BME280;22275;43.208;27.620;2022-09-13T01:10:02;100774.16;;;22.24;100.00
36014;BME280;22275;43.208;27.620;2022-09-13T01:12:36;100777.19;;;22.45;100.00
36014;BME280;22275;43.208;27.620;2022-09-13T01:15:06;100767.31;;;22.46;100.00
36014;BME280;22275;43.208;27.620;2022-09-13T01:17:34;100767.50;;;22.52;100.00
36014;BME280;22275;43.208;27.620;2022-09-13T01:20:07;100773.31;;;22.15;100.00
36014;BME280;22275;43.208;27.620;2022-09-13T01:23:14;100787.16;;;21.61;100.00
36014;BME280;22275;43.208;27.620;2022-09-13T01:26:14;100779.75;;;21.89;100.00
36014;BME280;22275;43.208;27.620;2022-09-13T01:29:24;100766.75;;;22.10;100.00
36014;BME280;22275;43.208;27.620;2022-09-13T01:32:04;100773.28;;;22.07;100.00
36014;BME280;22275;43.208;27.620;2022-09-13T01:34:45;100781.00;;;22.02;100.00
36014;BME280;22275;43.208;27.620;2022-09-13T01:37:28;100782.91;;;21.84;100.00
36014;BME280;22275;43.208;27.620;2022-09-13T01:40:07;100783.03;;;21.74;100.00
36014;BME280;22275;43.208;27.620;2022-09-13T01:42:52;100784.59;;;21.85;100.00
36014;BME280;22275;43.208;27.620;2022-09-13T01:45:35;100783.00;;;22.00;100.00
36014;BME280;22275;43.208;27.620;2022-09-13T01:48:12;100784.53;;;21.77;100.00
36014;BME280;22275;43.208;27.620;2022-09-13T01:50:46;100782.31;;;21.56;100.00
36014;BME280;22275;43.208;27.620;2022-09-13T01:53:22;100779.97;;;21.61;100.00
36014;BME280;22275;43.208;27.620;2022-09-13T01:55:56;100782.00;;;21.67;100.00
36014;BME280;22275;43.208;27.620;2022-09-13T01:58:27;100788.44;;;21.49;100.00
36014;BME280;22275;43.208;27.620;2022-09-13T02:01:02;100781.63;;;21.29;100.00
36014;BME280;22275;43.208;27.620;2022-09-13T02:03:36;100790.59;;;21.11;100.00
36014;BME280;22275;43.208;27.620;2022-09-13T02:06:07;100786.16;;;21.02;100.00
36014;BME280;22275;43.208;27.620;2022-09-13T02:08:40;100777.28;;;20.84;100.00
36014;BME280;22275;43.208;27.620;2022-09-13T02:11:10;100774.03;;;20.73;100.00
36014;BME280;22275;43.208;27.620;2022-09-13T02:13:41;100769.22;;;20.76;100.00
36014;BME280;22275;43.208;27.620;2022-09-13T02:16:14;100763.91;;;20.84;100.00
36014;BME280;22275;43.208;27.620;2022-09-13T02:18:46;100767.19;;;20.96;100.00
36014;BME280;22275;43.208;27.620;2022-09-13T02:21:18;100766.56;;;21.02;100.00
36014;BME280;22275;43.208;27.620;2022-09-13T02:23:50;100763.47;;;20.89;100.00
36014;BME280;22275;43.208;27.620;2022-09-13T02:26:20;100767.03;;;20.54;100.00
36014;BME280;22275;43.208;27.620;2022-09-13T02:28:50;100767.09;;;20.44;100.00
36014;BME280;22275;43.208;27.620;2022-09-13T02:31:28;100766.31;;;20.17;100.00
36014;BME280;22275;43.208;27.620;2022-09-13T02:33:59;100765.03;;;19.93;100.00
36014;BME280;22275;43.208;27.620;2022-09-13T02:36:32;100773.47;;;19.71;100.00
36014;BME280;22275;43.208;27.620;2022-09-13T02:39:03;100775.13;;;19.99;100.00
36014;BME280;22275;43.208;27.620;2022-09-13T02:41:36;100777.38;;;20.22;100.00
36014;BME280;22275;43.208;27.620;2022-09-13T02:44:08;100776.22;;;20.24;100.00
36014;BME280;22275;43.208;27.620;2022-09-13T02:46:50;100769.19;;;20.05;100.00
36014;BME280;22275;43.208;27.620;2022-09-13T02:49:26;100770.19;;;20.22;100.00
36014;BME280;22275;43.208;27.620;2022-09-13T02:52:00;100775.09;;;20.09;100.00
36014;BME280;22275;43.208;27.620;2022-09-13T02:54:34;100771.28;;;19.84;100.00
36014;BME280;22275;43.208;27.620;2022-09-13T02:57:07;100773.09;;;19.66;100.00
36014;BME280;22275;43.208;27.620;2022-09-13T02:59:36;100773.41;;;19.54;100.00
36014;BME280;22275;43.208;27.620;2022-09-13T03:02:07;100775.19;;;19.26;100.00
36014;BME280;22275;43.208;27.620;2022-09-13T03:04:37;100772.69;;;19.15;100.00
36014;BME280;22275;43.208;27.620;2022-09-13T03:07:08;100783.94;;;19.09;100.00
36014;BME280;22275;43.208;27.620;2022-09-13T03:09:35;100770.50;;;18.91;100.00
36014;BME280;22275;43.208;27.620;2022-09-13T03:12:22;100779.78;;;18.77;100.00
36014;BME280;22275;43.208;27.620;2022-09-13T03:15:00;100779.94;;;18.66;100.00
36014;BME280;22275;43.208;27.620;2022-09-13T03:17:42;100783.88;;;18.62;100.00
36014;BME280;22275;43.208;27.620;2022-09-13T03:20:20;100781.22;;;18.53;100.00
36014;BME280;22275;43.208;27.620;2022-09-13T03:23:11;100790.06;;;18.53;100.00
36014;BME280;22275;43.208;27.620;2022-09-13T03:26:07;100789.88;;;18.45;100.00
36014;BME280;22275;43.208;27.620;2022-09-13T03:28:48;100795.50;;;18.42;100.00
36014;BME280;22275;43.208;27.620;2022-09-13T03:31:25;100802.81;;;18.30;100.00
36014;BME280;22275;43.208;27.620;2022-09-13T03:33:57;100807.25;;;18.11;100.00
36014;BME280;22275;43.208;27.620;2022-09-13T03:36:32;100810.63;;;18.13;100.00
36014;BME280;22275;43.208;27.620;2022-09-13T03:39:07;100817.00;;;17.91;100.00
36014;BME280;22275;43.208;27.620;2022-09-13T03:41:41;100816.97;;;17.72;100.00
36014;BME280;22275;43.208;27.620;2022-09-13T03:44:13;100814.06;;;17.85;100.00
36014;BME280;22275;43.208;27.620;2022-09-13T03:46:44;100820.78;;;17.89;100.00
36014;BME280;22275;43.208;27.620;2022-09-13T03:49:15;100833.84;;;17.92;100.00
36014;BME280;22275;43.208;27.620;2022-09-13T03:51:46;100824.63;;;17.96;100.00
36014;BME280;22275;43.208;27.620;2022-09-13T03:54:17;100822.03;;;17.75;100.00
36014;BME280;22275;43.208;27.620;2022-09-13T03:57:10;100826.88;;;17.60;100.00
36014;BME280;22275;43.208;27.620;2022-09-13T03:59:40;100822.16;;;17.73;100.00
36014;BME280;22275;43.208;27.620;2022-09-13T04:02:09;100826.78;;;17.71;100.00
36014;BME280;22275;43.208;27.620;2022-09-13T04:04:38;100830.50;;;17.90;100.00
36014;BME280;22275;43.208;27.620;2022-09-13T04:07:07;100831.94;;;18.03;100.00
36014;BME280;22275;43.208;27.620;2022-09-13T04:09:35;100829.69;;;18.08;100.00
36014;BME280;22275;43.208;27.620;2022-09-13T04:12:03;100829.00;;;18.06;100.00
36014;BME280;22275;43.208;27.620;2022-09-13T04:14:30;100841.53;;;18.34;100.00
36014;BME280;22275;43.208;27.620;2022-09-13T04:16:58;100839.91;;;18.53;100.00
36014;BME280;22275;43.208;27.620;2022-09-13T04:19:25;100847.44;;;18.38;100.00
36014;BME280;22275;43.208;27.620;2022-09-13T04:21:54;100844.56;;;18.11;100.00
36014;BME280;22275;43.208;27.620;2022-09-13T04:24:25;100854.56;;;18.28;100.00
36014;BME280;22275;43.208;27.620;2022-09-13T04:26:54;100852.25;;;18.54;100.00
36014;BME280;22275;43.208;27.620;2022-09-13T04:29:23;100840.19;;;18.50;100.00
36014;BME280;22275;43.208;27.620;2022-09-13T04:31:52;100850.84;;;18.59;100.00
36014;BME280;22275;43.208;27.620;2022-09-13T04:34:19;100855.06;;;18.52;100.00
36014;BME280;22275;43.208;27.620;2022-09-13T04:36:48;100855.28;;;18.39;100.00
36014;BME280;22275;43.208;27.620;2022-09-13T04:39:16;100856.91;;;18.12;100.00
36014;BME280;22275;43.208;27.620;2022-09-13T04:41:45;100854.84;;;18.25;100.00
36014;BME280;22275;43.208;27.620;2022-09-13T04:44:14;100850.31;;;18.56;100.00
36014;BME280;22275;43.208;27.620;2022-09-13T04:46:41;100841.88;;;18.79;100.00
36014;BME280;22275;43.208;27.620;2022-09-13T04:49:09;100848.63;;;18.83;100.00
36014;BME280;22275;43.208;27.620;2022-09-13T04:51:36;100848.59;;;18.74;100.00
36014;BME280;22275;43.208;27.620;2022-09-13T04:54:04;100846.94;;;18.82;100.00
36014;BME280;22275;43.208;27.620;2022-09-13T04:56:31;100862.50;;;18.68;100.00
36014;BME280;22275;43.208;27.620;2022-09-13T04:59:00;100851.56;;;18.80;100.00
36014;BME280;22275;43.208;27.620;2022-09-13T05:01:28;100855.34;;;18.97;100.00
36014;BME280;22275;43.208;27.620;2022-09-13T05:03:55;100856.31;;;19.06;100.00
36014;BME280;22275;43.208;27.620;2022-09-13T05:06:22;100859.97;;;19.24;100.00
36014;BME280;22275;43.208;27.620;2022-09-13T05:08:51;100853.63;;;19.44;100.00
36014;BME280;22275;43.208;27.620;2022-09-13T05:11:20;100856.31;;;19.44;100.00
36014;BME280;22275;43.208;27.620;2022-09-13T05:13:48;100861.69;;;19.62;100.00
36014;BME280;22275;43.208;27.620;2022-09-13T05:16:21;100857.81;;;19.27;100.00
36014;BME280;22275;43.208;27.620;2022-09-13T05:18:49;100864.84;;;19.38;100.00
36014;BME280;22275;43.208;27.620;2022-09-13T05:21:16;100864.59;;;19.41;100.00
36014;BME280;22275;43.208;27.620;2022-09-13T05:23:44;100867.50;;;19.47;100.00
36014;BME280;22275;43.208;27.620;2022-09-13T05:26:14;100871.53;;;19.61;100.00
36014;BME280;22275;43.208;27.620;2022-09-13T05:28:41;100863.09;;;19.66;100.00
36014;BME280;22275;43.208;27.620;2022-09-13T05:31:12;100859.94;;;19.89;100.00
36014;BME280;22275;43.208;27.620;2022-09-13T05:33:42;100858.22;;;19.88;100.00
36014;BME280;22275;43.208;27.620;2022-09-13T05:36:10;100856.38;;;20.16;100.00
36014;BME280;22275;43.208;27.620;2022-09-13T05:38:37;100851.41;;;20.03;100.00
36014;BME280;22275;43.208;27.620;2022-09-13T05:41:05;100852.09;;;20.33;100.00
36014;BME280;22275;43.208;27.620;2022-09-13T05:43:33;100857.22;;;20.44;100.00
36014;BME280;22275;43.208;27.620;2022-09-13T05:46:02;100850.97;;;20.88;100.00
36014;BME280;22275;43.208;27.620;2022-09-13T05:48:31;100849.22;;;20.79;100.00
36014;BME280;22275;43.208;27.620;2022-09-13T05:51:05;100843.53;;;21.17;100.00
36014;BME280;22275;43.208;27.620;2022-09-13T05:53:33;100851.53;;;21.35;100.00
36014;BME280;22275;43.208;27.620;2022-09-13T05:56:00;100850.91;;;21.41;100.00
36014;BME280;22275;43.208;27.620;2022-09-13T05:58:28;100858.97;;;21.49;100.00
36014;BME280;22275;43.208;27.620;2022-09-13T06:00:56;100858.50;;;21.80;100.00
36014;BME280;22275;43.208;27.620;2022-09-13T06:03:23;100856.00;;;21.86;100.00
36014;BME280;22275;43.208;27.620;2022-09-13T06:05:54;100850.44;;;21.80;100.00
36014;BME280;22275;43.208;27.620;2022-09-13T06:08:23;100850.03;;;21.92;100.00
36014;BME280;22275;43.208;27.620;2022-09-13T06:10:54;100859.38;;;21.88;100.00
36014;BME280;22275;43.208;27.620;2022-09-13T06:13:22;100853.75;;;21.99;100.00
36014;BME280;22275;43.208;27.620;2022-09-13T06:15:49;100857.47;;;21.81;100.00
36014;BME280;22275;43.208;27.620;2022-09-13T06:18:17;100867.31;;;21.72;100.00
36014;BME280;22275;43.208;27.620;2022-09-13T06:20:45;100860.66;;;21.76;100.00
36014;BME280;22275;43.208;27.620;2022-09-13T06:23:13;100863.03;;;21.53;100.00
36014;BME280;22275;43.208;27.620;2022-09-13T06:25:42;100866.81;;;21.43;100.00
36014;BME280;22275;43.208;27.620;2022-09-13T06:28:09;100868.34;;;21.45;100.00
36014;BME280;22275;43.208;27.620;2022-09-13T06:30:36;100863.81;;;21.46;100.00
36014;BME280;22275;43.208;27.620;2022-09-13T06:33:04;100876.06;;;21.23;100.00
36014;BME280;22275;43.208;27.620;2022-09-13T06:35:31;100869.81;;;21.40;100.00
36014;BME280;22275;43.208;27.620;2022-09-13T06:37:58;100868.84;;;21.49;100.00
36014;BME280;22275;43.208;27.620;2022-09-13T06:40:25;100866.72;;;21.86;100.00
36014;BME280;22275;43.208;27.620;2022-09-13T06:42:54;100871.16;;;21.95;100.00
36014;BME280;22275;43.208;27.620;2022-09-13T06:45:22;100866.78;;;21.94;100.00
36014;BME280;22275;43.208;27.620;2022-09-13T06:47:52;100871.91;;;22.13;100.00
36014;BME280;22275;43.208;27.620;2022-09-13T06:50:20;100871.41;;;21.84;100.00
36014;BME280;22275;43.208;27.620;2022-09-13T06:52:47;100877.03;;;21.91;100.00
36014;BME280;22275;43.208;27.620;2022-09-13T06:55:15;100876.25;;;22.14;100.00
36014;BME280;22275;43.208;27.620;2022-09-13T06:57:42;100873.00;;;21.95;100.00
36014;BME280;22275;43.208;27.620;2022-09-13T07:00:12;100868.22;;;22.14;100.00
36014;BME280;22275;43.208;27.620;2022-09-13T07:02:39;100874.06;;;22.10;100.00
36014;BME280;22275;43.208;27.620;2022-09-13T07:05:07;100877.97;;;22.15;100.00
36014;BME280;22275;43.208;27.620;2022-09-13T07:07:35;100869.56;;;22.10;100.00
36014;BME280;22275;43.208;27.620;2022-09-13T07:10:03;100872.78;;;22.22;100.00
36014;BME280;22275;43.208;27.620;2022-09-13T07:12:30;100867.25;;;22.23;100.00
36014;BME280;22275;43.208;27.620;2022-09-13T07:14:57;100866.28;;;22.32;100.00
36014;BME280;22275;43.208;27.620;2022-09-13T07:17:27;100863.59;;;22.41;100.00
36014;BME280;22275;43.208;27.620;2022-09-13T07:19:55;100860.69;;;22.76;100.00
36014;BME280;22275;43.208;27.620;2022-09-13T07:22:22;100865.38;;;22.82;100.00
36014;BME280;22275;43.208;27.620;2022-09-13T07:24:52;100850.28;;;22.89;100.00
36014;BME280;22275;43.208;27.620;2022-09-13T07:27:19;100857.34;;;22.98;100.00
36014;BME280;22275;43.208;27.620;2022-09-13T07:29:47;100849.59;;;23.19;100.00
36014;BME280;22275;43.208;27.620;2022-09-13T07:32:14;100848.19;;;23.56;100.00
36014;BME280;22275;43.208;27.620;2022-09-13T07:34:42;100849.25;;;23.47;100.00
36014;BME280;22275;43.208;27.620;2022-09-13T07:37:10;100844.81;;;23.70;100.00
36014;BME280;22275;43.208;27.620;2022-09-13T07:39:37;100857.63;;;23.52;100.00
36014;BME280;22275;43.208;27.620;2022-09-13T07:42:04;100853.75;;;23.54;100.00
36014;BME280;22275;43.208;27.620;2022-09-13T07:44:31;100855.63;;;23.37;100.00
36014;BME280;22275;43.208;27.620;2022-09-13T07:46:59;100864.19;;;23.33;100.00
36014;BME280;22275;43.208;27.620;2022-09-13T07:49:26;100852.19;;;23.76;100.00
36014;BME280;22275;43.208;27.620;2022-09-13T07:51:55;100860.41;;;23.82;100.00
36014;BME280;22275;43.208;27.620;2022-09-13T07:54:22;100860.81;;;23.63;100.00
36014;BME280;22275;43.208;27.620;2022-09-13T07:56:49;100858.13;;;23.63;100.00
36014;BME280;22275;43.208;27.620;2022-09-13T07:59:17;100855.28;;;23.95;100.00
36014;BME280;22275;43.208;27.620;2022-09-13T08:01:46;100856.44;;;24.01;100.00
36014;BME280;22275;43.208;27.620;2022-09-13T08:04:14;100863.28;;;23.81;100.00
36014;BME280;22275;43.208;27.620;2022-09-13T08:06:43;100868.34;;;23.68;100.00
36014;BME280;22275;43.208;27.620;2022-09-13T08:09:13;100851.59;;;23.41;100.00
36014;BME280;22275;43.208;27.620;2022-09-13T08:11:42;100851.34;;;24.22;100.00
36014;BME280;22275;43.208;27.620;2022-09-13T08:14:11;100850.81;;;24.57;100.00
36014;BME280;22275;43.208;27.620;2022-09-13T08:16:39;100849.44;;;24.31;100.00
36014;BME280;22275;43.208;27.620;2022-09-13T08:19:09;100836.66;;;25.01;100.00
36014;BME280;22275;43.208;27.620;2022-09-13T08:21:37;100832.47;;;25.36;100.00
36014;BME280;22275;43.208;27.620;2022-09-13T08:24:06;100825.56;;;25.19;100.00
36014;BME280;22275;43.208;27.620;2022-09-13T08:26:35;100835.59;;;24.65;100.00
36014;BME280;22275;43.208;27.620;2022-09-13T08:29:04;100831.66;;;24.22;100.00
36014;BME280;22275;43.208;27.620;2022-09-13T08:31:32;100829.28;;;24.72;100.00
36014;BME280;22275;43.208;27.620;2022-09-13T08:34:00;100833.69;;;24.73;100.00
36014;BME280;22275;43.208;27.620;2022-09-13T08:36:27;100835.03;;;24.46;100.00
36014;BME280;22275;43.208;27.620;2022-09-13T08:38:57;100813.19;;;24.64;100.00
36014;BME280;22275;43.208;27.620;2022-09-13T08:44:46;100801.81;;;24.99;100.00
36014;BME280;22275;43.208;27.620;2022-09-13T08:47:26;100801.88;;;25.43;100.00
36014;BME280;22275;43.208;27.620;2022-09-13T08:50:00;100803.25;;;25.98;97.91
36014;BME280;22275;43.208;27.620;2022-09-13T08:52:34;100800.59;;;25.39;100.00
36014;BME280;22275;43.208;27.620;2022-09-13T08:55:19;100797.22;;;25.23;85.64
36014;BME280;22275;43.208;27.620;2022-09-13T08:57:52;100801.16;;;25.49;82.85
36014;BME280;22275;43.208;27.620;2022-09-13T09:00:26;100793.63;;;25.74;85.16
36014;BME280;22275;43.208;27.620;2022-09-13T09:03:07;100786.19;;;26.12;80.23
36014;BME280;22275;43.208;27.620;2022-09-13T09:05:43;100787.88;;;26.13;94.24
36014;BME280;22275;43.208;27.620;2022-09-13T09:08:24;100790.75;;;25.61;97.02
36014;BME280;22275;43.208;27.620;2022-09-13T09:10:54;100786.25;;;25.39;97.10
36014;BME280;22275;43.208;27.620;2022-09-13T09:13:27;100788.16;;;25.53;85.34
36014;BME280;22275;43.208;27.620;2022-09-13T09:15:59;100781.69;;;25.83;82.75
36014;BME280;22275;43.208;27.620;2022-09-13T09:18:30;100775.13;;;26.07;81.77
36014;BME280;22275;43.208;27.620;2022-09-13T09:21:00;100776.31;;;25.68;87.81
36014;BME280;22275;43.208;27.620;2022-09-13T09:23:34;100780.22;;;25.66;90.18
36014;BME280;22275;43.208;27.620;2022-09-13T09:26:13;100774.16;;;25.79;81.18
36014;BME280;22275;43.208;27.620;2022-09-13T09:28:42;100766.75;;;25.51;81.24
36014;BME280;22275;43.208;27.620;2022-09-13T09:31:15;100766.22;;;25.92;79.25
36014;BME280;22275;43.208;27.620;2022-09-13T09:33:56;100760.81;;;25.92;79.26
36014;BME280;22275;43.208;27.620;2022-09-13T09:36:31;100761.88;;;26.12;77.38
36014;BME280;22275;43.208;27.620;2022-09-13T09:39:03;100764.88;;;26.17;74.99
36014;BME280;22275;43.208;27.620;2022-09-13T09:41:32;100768.41;;;26.03;73.74
36014;BME280;22275;43.208;27.620;2022-09-13T09:44:09;100763.34;;;26.29;73.50
36014;BME280;22275;43.208;27.620;2022-09-13T09:46:42;100764.44;;;26.35;74.22
36014;BME280;22275;43.208;27.620;2022-09-13T09:49:15;100757.75;;;26.73;75.81
36014;BME280;22275;43.208;27.620;2022-09-13T09:52:02;100764.78;;;26.46;74.69
36014;BME280;22275;43.208;27.620;2022-09-13T09:54:33;100765.41;;;26.48;72.19
36014;BME280;22275;43.208;27.620;2022-09-13T09:57:02;100766.25;;;26.49;72.80
36014;BME280;22275;43.208;27.620;2022-09-13T09:59:32;100760.59;;;26.44;71.53
36014;BME280;22275;43.208;27.620;2022-09-13T10:02:13;100775.38;;;26.26;75.51
36014;BME280;22275;43.208;27.620;2022-09-13T10:04:42;100774.94;;;26.08;68.93
36014;BME280;22275;43.208;27.620;2022-09-13T10:07:20;100778.22;;;26.04;71.24
36014;BME280;22275;43.208;27.620;2022-09-13T10:09:56;100772.03;;;26.24;71.58
36014;BME280;22275;43.208;27.620;2022-09-13T10:12:26;100759.75;;;26.43;70.34
36014;BME280;22275;43.208;27.620;2022-09-13T10:15:03;100760.38;;;26.66;68.41
36014;BME280;22275;43.208;27.620;2022-09-13T10:17:32;100767.97;;;26.77;68.26
36014;BME280;22275;43.208;27.620;2022-09-13T10:20:02;100758.97;;;26.70;65.48
36014;BME280;22275;43.208;27.620;2022-09-13T10:22:31;100750.88;;;26.70;65.25
36014;BME280;22275;43.208;27.620;2022-09-13T10:25:13;100754.84;;;26.96;65.73
36014;BME280;22275;43.208;27.620;2022-09-13T10:27:47;100749.81;;;26.93;67.02
36014;BME280;22275;43.208;27.620;2022-09-13T10:30:30;100768.25;;;26.40;66.69
36014;BME280;22275;43.208;27.620;2022-09-13T10:33:01;100759.47;;;27.02;66.48
36014;BME280;22275;43.208;27.620;2022-09-13T10:35:29;100750.47;;;26.73;65.07
36014;BME280;22275;43.208;27.620;2022-09-13T10:37:56;100746.63;;;26.61;63.01
36014;BME280;22275;43.208;27.620;2022-09-13T10:40:27;100751.69;;;26.92;57.17
36014;BME280;22275;43.208;27.620;2022-09-13T10:42:57;100738.75;;;26.66;60.13
36014;BME280;22275;43.208;27.620;2022-09-13T10:45:25;100745.50;;;26.28;61.95
36014;BME280;22275;43.208;27.620;2022-09-13T10:47:56;100745.97;;;26.59;62.51
36014;BME280;22275;43.208;27.620;2022-09-13T10:50:29;100745.47;;;26.70;61.72
36014;BME280;22275;43.208;27.620;2022-09-13T10:52:59;100731.22;;;26.83;62.74
36014;BME280;22275;43.208;27.620;2022-09-13T10:55:34;100722.34;;;26.68;60.17
36014;BME280;22275;43.208;27.620;2022-09-13T10:58:17;100722.47;;;27.09;57.97
36014;BME280;22275;43.208;27.620;2022-09-13T11:01:18;100724.22;;;27.23;55.67
36014;BME280;22275;43.208;27.620;2022-09-13T11:04:13;100722.72;;;26.86;53.34
36014;BME280;22275;43.208;27.620;2022-09-13T11:06:54;100714.19;;;26.82;53.11
36014;BME280;22275;43.208;27.620;2022-09-13T11:09:26;100710.91;;;27.21;53.39
36014;BME280;22275;43.208;27.620;2022-09-13T11:12:01;100700.97;;;27.69;52.03
36014;BME280;22275;43.208;27.620;2022-09-13T11:14:41;100698.25;;;27.76;52.30
36014;BME280;22275;43.208;27.620;2022-09-13T11:17:18;100704.66;;;28.09;51.52
36014;BME280;22275;43.208;27.620;2022-09-13T11:20:08;100695.94;;;27.66;50.65
36014;BME280;22275;43.208;27.620;2022-09-13T11:22:52;100693.50;;;27.78;51.92
36014;BME280;22275;43.208;27.620;2022-09-13T11:25:38;100695.31;;;27.23;50.76
36014;BME280;22275;43.208;27.620;2022-09-13T11:28:24;100700.94;;;27.28;50.21
36014;BME280;22275;43.208;27.620;2022-09-13T11:31:05;100692.22;;;27.26;49.74
36014;BME280;22275;43.208;27.620;2022-09-13T11:33:45;100694.69;;;27.28;51.06
36014;BME280;22275;43.208;27.620;2022-09-13T11:39:14;100693.06;;;26.99;50.56
36014;BME280;22275;43.208;27.620;2022-09-13T11:41:51;100694.47;;;26.89;51.80
36014;BME280;22275;43.208;27.620;2022-09-13T11:44:44;100693.50;;;26.96;51.61
36014;BME280;22275;43.208;27.620;2022-09-13T11:47:22;100691.31;;;26.85;49.92
36014;BME280;22275;43.208;27.620;2022-09-13T11:50:02;100688.91;;;26.97;49.78
36014;BME280;22275;43.208;27.620;2022-09-13T11:52:41;100696.72;;;27.19;51.61
36014;BME280;22275;43.208;27.620;2022-09-13T11:55:25;100695.75;;;26.93;51.93
36014;BME280;22275;43.208;27.620;2022-09-13T11:57:55;100694.69;;;27.21;51.80
36014;BME280;22275;43.208;27.620;2022-09-13T12:00:25;100685.72;;;27.55;51.84
36014;BME280;22275;43.208;27.620;2022-09-13T12:03:02;100682.13;;;26.79;52.18
36014;BME280;22275;43.208;27.620;2022-09-13T12:05:35;100684.03;;;26.79;51.93
36014;BME280;22275;43.208;27.620;2022-09-13T12:08:11;100684.78;;;26.73;52.95
36014;BME280;22275;43.208;27.620;2022-09-13T12:10:45;100681.56;;;27.18;53.57
36014;BME280;22275;43.208;27.620;2022-09-13T12:13:18;100682.03;;;27.82;52.64
36014;BME280;22275;43.208;27.620;2022-09-13T12:15:51;100678.38;;;28.03;51.72
36014;BME280;22275;43.208;27.620;2022-09-13T12:18:22;100684.56;;;27.90;50.63
36014;BME280;22275;43.208;27.620;2022-09-13T12:20:53;100695.75;;;26.93;51.82
36014;BME280;22275;43.208;27.620;2022-09-13T12:23:26;100688.38;;;27.14;53.31
36014;BME280;22275;43.208;27.620;2022-09-13T12:25:59;100698.47;;;26.71;53.60
36014;BME280;22275;43.208;27.620;2022-09-13T12:28:31;100700.88;;;26.81;54.24
36014;BME280;22275;43.208;27.620;2022-09-13T12:31:06;100698.47;;;26.99;54.19
36014;BME280;22275;43.208;27.620;2022-09-13T12:33:38;100697.22;;;26.67;55.64
36014;BME280;22275;43.208;27.620;2022-09-13T12:36:29;100701.78;;;26.67;55.75
36014;BME280;22275;43.208;27.620;2022-09-13T12:39:24;100703.41;;;26.89;54.70
36014;BME280;22275;43.208;27.620;2022-09-13T12:45:11;100696.94;;;27.18;55.10
36014;BME280;22275;43.208;27.620;2022-09-13T12:48:00;100703.81;;;27.20;54.57
36014;BME280;22275;43.208;27.620;2022-09-13T12:50:45;100693.28;;;27.32;55.35
36014;BME280;22275;43.208;27.620;2022-09-13T12:54:02;100698.75;;;27.11;54.90
36014;BME280;22275;43.208;27.620;2022-09-13T12:56:49;100692.78;;;27.22;54.55
36014;BME280;22275;43.208;27.620;2022-09-13T12:59:37;100692.66;;;27.30;54.36
36014;BME280;22275;43.208;27.620;2022-09-13T13:02:27;100695.53;;;27.28;53.41
36014;BME280;22275;43.208;27.620;2022-09-13T13:04:58;100691.19;;;27.34;54.28
36014;BME280;22275;43.208;27.620;2022-09-13T13:07:27;100689.28;;;27.69;52.46
36014;BME280;22275;43.208;27.620;2022-09-13T13:09:57;100696.72;;;27.47;52.97
36014;BME280;22275;43.208;27.620;2022-09-13T13:12:28;100702.53;;;27.44;53.53